createdAt,value
2016-12-16T00:00:02.302Z,3.3
2016-12-16T00:00:12.296Z,3.3
2016-12-16T00:00:22.291Z,3.4
2016-12-16T00:00:32.283Z,3.4
2016-12-16T00:00:42.278Z,3.4
2016-12-16T00:00:52.272Z,3.5
2016-12-16T00:01:02.266Z,3.4
2016-12-16T00:01:12.259Z,3.5
2016-12-16T00:01:22.251Z,3.4
2016-12-16T00:01:32.246Z,3.4
2016-12-16T00:01:42.240Z,3.5
2016-12-16T00:01:52.233Z,3.4
2016-12-16T00:02:02.226Z,3.5
2016-12-16T00:02:12.221Z,3.4
2016-12-16T00:02:22.213Z,3.3
2016-12-16T00:02:32.207Z,3.3
2016-12-16T00:02:42.200Z,3.4
2016-12-16T00:02:52.193Z,3.4
2016-12-16T00:03:02.188Z,3.3
2016-12-16T00:03:12.180Z,3.4
2016-12-16T00:03:22.175Z,3.4
2016-12-16T00:03:32.169Z,3.3
2016-12-16T00:03:42.162Z,3.3
2016-12-16T00:03:52.156Z,3.4
2016-12-16T00:04:02.151Z,3.3
2016-12-16T00:04:12.142Z,3.4
2016-12-16T00:04:22.136Z,3.4
2016-12-16T00:04:32.130Z,3.4
2016-12-16T00:04:42.123Z,3.4
2016-12-16T00:04:52.116Z,3.3
2016-12-16T00:05:02.110Z,3.4
2016-12-16T00:05:12.104Z,3.4
2016-12-16T00:05:22.097Z,3.4
2016-12-16T00:05:32.090Z,3.3
2016-12-16T00:05:42.085Z,3.4
2016-12-16T00:05:52.076Z,3.4
2016-12-16T00:06:02.071Z,3.4
2016-12-16T00:06:12.064Z,3.5
2016-12-16T00:06:22.057Z,3.5
2016-12-16T00:06:32.052Z,3.4
2016-12-16T00:06:42.047Z,3.4
2016-12-16T00:06:52.039Z,3.5
2016-12-16T00:07:02.033Z,3.5
2016-12-16T00:07:12.025Z,3.5
2016-12-16T00:07:22.018Z,3.5
2016-12-16T00:07:32.014Z,3.4
2016-12-16T00:07:42.006Z,3.5
2016-12-16T00:07:52.001Z,3.4
2016-12-16T00:08:01.993Z,3.4
2016-12-16T00:08:11.991Z,3.3
2016-12-16T00:08:21.980Z,3.4
2016-12-16T00:08:31.974Z,3.4
2016-12-16T00:08:41.966Z,3.4
2016-12-16T00:08:51.962Z,3.4
2016-12-16T00:09:01.955Z,3.4
2016-12-16T00:09:11.948Z,3.4
2016-12-16T00:09:21.941Z,3.4
2016-12-16T00:09:31.935Z,3.4
2016-12-16T00:09:41.929Z,3.3
2016-12-16T00:09:51.925Z,3.5
2016-12-16T00:10:01.916Z,3.5
2016-12-16T00:10:11.910Z,3.5
2016-12-16T00:10:21.904Z,3.5
2016-12-16T00:10:31.895Z,3.4
2016-12-16T00:10:41.889Z,3.3
2016-12-16T00:10:51.884Z,3.5
2016-12-16T00:11:01.878Z,3.5
2016-12-16T00:11:11.870Z,3.4
2016-12-16T00:11:21.865Z,3.3
2016-12-16T00:11:31.856Z,3.4
2016-12-16T00:11:41.854Z,3.3
2016-12-16T00:11:51.843Z,3.3
2016-12-16T00:12:01.837Z,3.3
2016-12-16T00:12:11.830Z,3.3
2016-12-16T00:12:21.827Z,3.4
2016-12-16T00:12:31.817Z,3.4
2016-12-16T00:12:41.811Z,3.4
2016-12-16T00:12:51.806Z,3.3
2016-12-16T00:13:01.799Z,3.3
2016-12-16T00:13:11.794Z,3.4
2016-12-16T00:13:21.785Z,3.4
2016-12-16T00:13:31.780Z,3.3
2016-12-16T00:13:41.772Z,3.3
2016-12-16T00:13:51.766Z,3.4
2016-12-16T00:14:01.760Z,3.4
2016-12-16T00:14:11.755Z,3.3
2016-12-16T00:14:21.747Z,3.4
2016-12-16T00:14:31.740Z,3.4
2016-12-16T00:14:41.734Z,3.4
2016-12-16T00:14:51.728Z,3.4
2016-12-16T00:15:01.722Z,3.3
2016-12-16T00:15:11.715Z,3.5
2016-12-16T00:15:21.709Z,3.5
2016-12-16T00:15:31.703Z,3.5
2016-12-16T00:15:41.695Z,3.4
2016-12-16T00:15:51.688Z,3.3
2016-12-16T00:16:01.682Z,3.5
2016-12-16T00:16:11.676Z,3.4
2016-12-16T00:16:21.670Z,3.5
2016-12-16T00:16:31.664Z,3.3
2016-12-16T00:16:41.657Z,3.5
2016-12-16T00:16:51.650Z,3.5
2016-12-16T00:17:01.643Z,3.4
2016-12-16T00:17:11.637Z,3.4
2016-12-16T00:17:21.630Z,3.4
2016-12-16T00:17:31.623Z,3.5
2016-12-16T00:17:41.617Z,3.5
2016-12-16T00:17:51.611Z,3.5
2016-12-16T00:18:01.604Z,3.4
2016-12-16T00:18:11.599Z,3.4
2016-12-16T00:18:21.592Z,3.4
2016-12-16T00:18:31.585Z,3.5
2016-12-16T00:18:41.578Z,3.3
2016-12-16T00:18:51.572Z,3.3
2016-12-16T00:19:01.568Z,3.3
2016-12-16T00:19:11.558Z,3.3
2016-12-16T00:19:21.553Z,3.4
2016-12-16T00:19:31.546Z,3.4
2016-12-16T00:19:41.539Z,3.3
2016-12-16T00:19:51.534Z,3.4
2016-12-16T00:20:01.527Z,3.5
2016-12-16T00:20:11.519Z,3.5
2016-12-16T00:20:21.513Z,3.3
2016-12-16T00:20:31.507Z,3.4
2016-12-16T00:20:41.500Z,3.5
2016-12-16T00:20:51.494Z,3.3
2016-12-16T00:21:01.488Z,3.4
2016-12-16T00:21:11.483Z,3.3
2016-12-16T00:21:21.475Z,3.3
2016-12-16T00:21:31.469Z,3.4
2016-12-16T00:21:41.461Z,3.4
2016-12-16T00:21:51.455Z,3.2
2016-12-16T00:22:01.449Z,3.3
2016-12-16T00:22:11.442Z,3.3
2016-12-16T00:22:21.436Z,3.3
2016-12-16T00:22:31.429Z,3.3
2016-12-16T00:22:41.422Z,3.3
2016-12-16T00:22:51.417Z,3.3
2016-12-16T00:23:01.409Z,3.3
2016-12-16T00:23:11.403Z,3.3
2016-12-16T00:23:21.397Z,3.3
2016-12-16T00:23:31.390Z,3.3
2016-12-16T00:23:41.384Z,3.3
2016-12-16T00:23:51.377Z,3.3
2016-12-16T00:24:01.371Z,3.3
2016-12-16T00:24:11.365Z,3.3
2016-12-16T00:24:21.358Z,3.3
2016-12-16T00:24:31.350Z,3.2
2016-12-16T00:24:41.345Z,3.4
2016-12-16T00:24:51.339Z,3.2
2016-12-16T00:25:01.332Z,3.3
2016-12-16T00:25:11.325Z,3.3
2016-12-16T00:25:21.319Z,3.2
2016-12-16T00:25:31.312Z,3.3
2016-12-16T00:25:41.307Z,3.2
2016-12-16T00:25:51.300Z,3.4
2016-12-16T00:26:01.292Z,3.2
2016-12-16T00:26:11.286Z,3.4
2016-12-16T00:26:21.279Z,3.3
2016-12-16T00:26:31.274Z,3.3
2016-12-16T00:26:41.266Z,3.3
2016-12-16T00:26:51.261Z,3.3
2016-12-16T00:27:01.255Z,3.3
2016-12-16T00:27:11.248Z,3.4
2016-12-16T00:27:21.240Z,3.3
2016-12-16T00:27:31.235Z,3.2
2016-12-16T00:27:41.228Z,3.3
2016-12-16T00:27:51.222Z,3.3
2016-12-16T00:28:01.215Z,3.3
2016-12-16T00:28:11.208Z,3.3
2016-12-16T00:28:21.203Z,3.4
2016-12-16T00:28:31.196Z,3.3
2016-12-16T00:28:41.190Z,3.3
2016-12-16T00:28:51.184Z,3.3
2016-12-16T00:29:01.176Z,3.2
2016-12-16T00:29:11.170Z,3.3
2016-12-16T00:29:21.161Z,3.3
2016-12-16T00:29:31.156Z,3.3
2016-12-16T00:29:41.151Z,3.3
2016-12-16T00:29:51.144Z,3.2
2016-12-16T00:30:01.137Z,3.3
2016-12-16T00:30:11.132Z,3.4
2016-12-16T00:30:21.125Z,3.3
2016-12-16T00:30:31.118Z,3.3
2016-12-16T00:30:41.110Z,3.3
2016-12-16T00:30:51.105Z,3.3
2016-12-16T00:31:01.099Z,3.3
2016-12-16T00:31:11.092Z,3.3
2016-12-16T00:31:21.085Z,3.2
2016-12-16T00:31:31.080Z,3.3
2016-12-16T00:31:41.073Z,3.3
2016-12-16T00:31:51.066Z,3.3
2016-12-16T00:32:01.058Z,3.3
2016-12-16T00:32:11.053Z,3.2
2016-12-16T00:32:21.047Z,3.2
2016-12-16T00:32:31.040Z,3.3
2016-12-16T00:32:41.033Z,3.3
2016-12-16T00:32:51.028Z,3.2
2016-12-16T00:33:01.021Z,3.3
2016-12-16T00:33:11.015Z,3.4
2016-12-16T00:33:21.007Z,3.3
2016-12-16T00:33:31.000Z,3.3
2016-12-16T00:33:40.996Z,3.3
2016-12-16T00:33:50.988Z,3.3
2016-12-16T00:34:00.981Z,3.2
2016-12-16T00:34:10.976Z,3.2
2016-12-16T00:34:20.967Z,3.2
2016-12-16T00:34:30.963Z,3.3
2016-12-16T00:34:40.955Z,3.2
2016-12-16T00:34:50.951Z,3.3
2016-12-16T00:35:00.943Z,3.3
2016-12-16T00:35:10.936Z,3.3
2016-12-16T00:35:20.929Z,3.3
2016-12-16T00:35:30.924Z,3.3
2016-12-16T00:35:40.915Z,3.3
2016-12-16T00:35:50.912Z,3.3
2016-12-16T00:36:00.904Z,3.3
2016-12-16T00:36:10.898Z,3.2
2016-12-16T00:36:20.891Z,3.2
2016-12-16T00:36:30.884Z,3.3
2016-12-16T00:36:40.878Z,3.2
2016-12-16T00:36:50.871Z,3.3
2016-12-16T00:37:00.865Z,3.3
2016-12-16T00:37:10.859Z,3.3
2016-12-16T00:37:20.851Z,3.3
2016-12-16T00:37:30.844Z,3.2
2016-12-16T00:37:40.838Z,3.3
2016-12-16T00:37:50.832Z,3.2
2016-12-16T00:38:00.825Z,3.3
2016-12-16T00:38:10.820Z,3.3
2016-12-16T00:38:20.813Z,3.2
2016-12-16T00:38:30.806Z,3.3
2016-12-16T00:38:40.799Z,3.3
2016-12-16T00:38:50.793Z,3.2
2016-12-16T00:39:00.786Z,3.3
2016-12-16T00:39:10.779Z,3.3
2016-12-16T00:39:20.774Z,3.3
2016-12-16T00:39:30.768Z,3.3
2016-12-16T00:39:40.761Z,3.3
2016-12-16T00:39:50.753Z,3.3
2016-12-16T00:40:00.748Z,3.3
2016-12-16T00:40:10.740Z,3.3
2016-12-16T00:40:20.736Z,3.3
2016-12-16T00:40:30.728Z,3.3
2016-12-16T00:40:40.722Z,3.3
2016-12-16T00:40:50.715Z,3.3
2016-12-16T00:41:00.709Z,3.2
2016-12-16T00:41:10.706Z,3.2
2016-12-16T00:41:20.696Z,3.3
2016-12-16T00:41:30.690Z,3.3
2016-12-16T00:41:40.683Z,3.2
2016-12-16T00:41:50.675Z,3.3
2016-12-16T00:42:00.671Z,3.2
2016-12-16T00:42:10.664Z,3.3
2016-12-16T00:42:20.656Z,3.3
2016-12-16T00:42:30.650Z,3.3
2016-12-16T00:42:40.644Z,3.3
2016-12-16T00:42:50.636Z,3.3
2016-12-16T00:43:00.633Z,3.3
2016-12-16T00:43:10.623Z,3.3
2016-12-16T00:43:20.619Z,3.3
2016-12-16T00:43:30.612Z,3.3
2016-12-16T00:43:40.604Z,3.3
2016-12-16T00:43:50.598Z,3.3
2016-12-16T00:44:00.591Z,3.3
2016-12-16T00:44:10.586Z,3.3
2016-12-16T00:44:20.578Z,3.2
2016-12-16T00:44:30.572Z,3.3
2016-12-16T00:44:40.565Z,3.3
2016-12-16T00:44:50.559Z,3.2
2016-12-16T00:45:00.551Z,3.3
2016-12-16T00:45:10.545Z,3.3
2016-12-16T00:45:20.540Z,3.2
2016-12-16T00:45:30.539Z,3.2
2016-12-16T00:45:40.527Z,3.2
2016-12-16T00:45:50.520Z,3.2
2016-12-16T00:46:00.514Z,3.1
2016-12-16T00:46:10.508Z,3.2
2016-12-16T00:46:20.500Z,3.1
2016-12-16T00:46:30.493Z,3.1
2016-12-16T00:46:40.486Z,3.1
2016-12-16T00:46:50.484Z,3.1
2016-12-16T00:47:00.474Z,3.1
2016-12-16T00:47:10.469Z,3.1
2016-12-16T00:47:20.463Z,3.1
2016-12-16T00:47:30.455Z,3.2
2016-12-16T00:47:40.447Z,3.1
2016-12-16T00:47:50.443Z,3.2
2016-12-16T00:48:00.435Z,3.1
2016-12-16T00:48:10.428Z,3.1
2016-12-16T00:48:20.423Z,3.1
2016-12-16T00:48:30.416Z,3.1
2016-12-16T00:48:40.410Z,3.1
2016-12-16T00:48:50.404Z,3.1
2016-12-16T00:49:00.397Z,3.1
2016-12-16T00:49:10.393Z,3.1
2016-12-16T00:49:20.384Z,3.1
2016-12-16T00:49:30.377Z,3.1
2016-12-16T00:49:40.370Z,3.1
2016-12-16T00:49:50.363Z,3.2
2016-12-16T00:50:00.359Z,3.1
2016-12-16T00:50:10.352Z,3.1
2016-12-16T00:50:20.345Z,3.1
2016-12-16T00:50:30.339Z,3.1
2016-12-16T00:50:40.332Z,3.1
2016-12-16T00:50:50.326Z,3.1
2016-12-16T00:51:00.318Z,3.1
2016-12-16T00:51:10.312Z,3.1
2016-12-16T00:51:20.305Z,3.2
2016-12-16T00:51:30.300Z,3.1
2016-12-16T00:51:40.292Z,3.1
2016-12-16T00:51:50.287Z,3.1
2016-12-16T00:52:00.280Z,3.1
2016-12-16T00:52:10.273Z,3.2
2016-12-16T00:52:20.268Z,3.1
2016-12-16T00:52:30.260Z,3.1
2016-12-16T00:52:40.254Z,3.2
2016-12-16T00:52:50.247Z,3.2
2016-12-16T00:53:00.240Z,3.1
2016-12-16T00:53:10.233Z,3.1
2016-12-16T00:53:20.228Z,3.1
2016-12-16T00:53:30.221Z,3.1
2016-12-16T00:53:40.216Z,3.1
2016-12-16T00:53:50.208Z,3
2016-12-16T00:54:00.202Z,3
2016-12-16T00:54:10.196Z,3.1
2016-12-16T00:54:20.187Z,3.1
2016-12-16T00:54:30.183Z,3.1
2016-12-16T00:54:40.175Z,3.2
2016-12-16T00:54:50.170Z,3.1
2016-12-16T00:55:00.163Z,3.1
2016-12-16T00:55:10.157Z,3.1
2016-12-16T00:55:20.149Z,3.1
2016-12-16T00:55:30.145Z,3.1
2016-12-16T00:55:40.137Z,3.2
2016-12-16T00:55:50.130Z,3.1
2016-12-16T00:56:00.124Z,3.2
2016-12-16T00:56:10.118Z,3.1
2016-12-16T00:56:20.112Z,3.1
2016-12-16T00:56:30.104Z,3.3
2016-12-16T00:56:40.097Z,3.1
2016-12-16T00:56:50.092Z,3.2
2016-12-16T00:57:00.085Z,3.2
2016-12-16T00:57:10.079Z,3.2
2016-12-16T00:57:20.070Z,3.2
2016-12-16T00:57:30.065Z,3.1
2016-12-16T00:57:40.059Z,3.2
2016-12-16T00:57:50.052Z,3.2
2016-12-16T00:58:00.047Z,3.1
2016-12-16T00:58:10.040Z,3.2
2016-12-16T00:58:20.033Z,3.3
2016-12-16T00:58:30.027Z,3.2
2016-12-16T00:58:40.019Z,3.2
2016-12-16T00:58:50.012Z,3.2
2016-12-16T00:59:00.006Z,3.1
2016-12-16T00:59:10.001Z,3.1
2016-12-16T00:59:19.994Z,3.1
2016-12-16T00:59:29.987Z,3.2
2016-12-16T00:59:39.981Z,3.1
2016-12-16T00:59:49.974Z,3.1
2016-12-16T00:59:59.967Z,3.1
2016-12-16T01:00:09.961Z,3.1
2016-12-16T01:00:19.956Z,3.2
2016-12-16T01:00:29.947Z,3.1
2016-12-16T01:00:39.943Z,3.1
2016-12-16T01:00:49.935Z,3.1
2016-12-16T01:00:59.929Z,3.1
2016-12-16T01:01:09.921Z,3.2
2016-12-16T01:01:19.916Z,3.1
2016-12-16T01:01:29.909Z,3.1
2016-12-16T01:01:39.907Z,3.2
2016-12-16T01:01:49.895Z,3.1
2016-12-16T01:01:59.891Z,3.1
2016-12-16T01:02:09.883Z,3.2
2016-12-16T01:02:19.875Z,3.2
2016-12-16T01:02:29.871Z,3.1
2016-12-16T01:02:39.863Z,3.1
2016-12-16T01:02:49.857Z,3.1
2016-12-16T01:02:59.852Z,3.2
2016-12-16T01:03:09.843Z,3.2
2016-12-16T01:03:19.838Z,3.1
2016-12-16T01:03:29.830Z,3.1
2016-12-16T01:03:39.824Z,3.1
2016-12-16T01:03:49.819Z,3.1
2016-12-16T01:03:59.811Z,3.1
2016-12-16T01:04:09.805Z,3.1
2016-12-16T01:04:19.798Z,3.2
2016-12-16T01:04:29.792Z,3.1
2016-12-16T01:04:39.785Z,3.1
2016-12-16T01:04:49.780Z,3.3
2016-12-16T01:04:59.772Z,3.2
2016-12-16T01:05:09.766Z,3.1
2016-12-16T01:05:19.758Z,3.2
2016-12-16T01:05:29.752Z,3.2
2016-12-16T01:05:39.747Z,3.3
2016-12-16T01:05:49.740Z,3.2
2016-12-16T01:05:59.732Z,3.1
2016-12-16T01:06:09.727Z,3.1
2016-12-16T01:06:19.720Z,3.2
2016-12-16T01:06:29.714Z,3.1
2016-12-16T01:06:39.707Z,3.1
2016-12-16T01:06:49.701Z,3.1
2016-12-16T01:06:59.694Z,3.1
2016-12-16T01:07:09.688Z,3.1
2016-12-16T01:07:19.684Z,3.1
2016-12-16T01:07:29.676Z,3.1
2016-12-16T01:07:39.668Z,3.1
2016-12-16T01:07:49.662Z,3.1
2016-12-16T01:07:59.655Z,3.1
2016-12-16T01:08:09.649Z,3.1
2016-12-16T01:08:19.643Z,3.1
2016-12-16T01:08:29.634Z,3.1
2016-12-16T01:08:39.630Z,3.1
2016-12-16T01:08:49.622Z,3.1
2016-12-16T01:08:59.617Z,3.1
2016-12-16T01:09:09.612Z,3.1
2016-12-16T01:09:19.603Z,3.1
2016-12-16T01:09:29.597Z,3
2016-12-16T01:09:39.591Z,3
2016-12-16T01:09:49.583Z,3
2016-12-16T01:09:59.578Z,3.1
2016-12-16T01:10:09.571Z,3.1
2016-12-16T01:10:19.563Z,3.1
2016-12-16T01:10:29.559Z,3.1
2016-12-16T01:10:39.550Z,3
2016-12-16T01:10:49.544Z,3
2016-12-16T01:10:59.538Z,3.1
2016-12-16T01:11:09.532Z,3.1
2016-12-16T01:11:19.524Z,3
2016-12-16T01:11:29.518Z,3.1
2016-12-16T01:11:39.512Z,3
2016-12-16T01:11:49.507Z,3.1
2016-12-16T01:11:59.499Z,3
2016-12-16T01:12:09.492Z,3.1
2016-12-16T01:12:19.487Z,3.1
2016-12-16T01:12:29.480Z,3.1
2016-12-16T01:12:39.473Z,3.1
2016-12-16T01:12:49.467Z,3.1
2016-12-16T01:12:59.459Z,3.1
2016-12-16T01:13:09.454Z,3.1
2016-12-16T01:13:19.446Z,3.1
2016-12-16T01:13:29.441Z,3.2
2016-12-16T01:13:39.434Z,3.1
2016-12-16T01:13:49.428Z,3.1
2016-12-16T01:13:59.421Z,3.1
2016-12-16T01:14:09.415Z,3.1
2016-12-16T01:14:19.408Z,3.1
2016-12-16T01:14:29.401Z,3
2016-12-16T01:14:39.395Z,3.1
2016-12-16T01:14:49.387Z,3.1
2016-12-16T01:14:59.382Z,3.1
2016-12-16T01:15:09.374Z,3.1
2016-12-16T01:15:19.369Z,3.2
2016-12-16T01:15:29.363Z,3.1
2016-12-16T01:15:39.356Z,3.1
2016-12-16T01:15:49.349Z,3.2
2016-12-16T01:15:59.342Z,3.1
2016-12-16T01:16:09.336Z,3.1
2016-12-16T01:16:19.331Z,3.1
2016-12-16T01:16:29.321Z,3
2016-12-16T01:16:39.315Z,3.1
2016-12-16T01:16:49.312Z,3.1
2016-12-16T01:16:59.302Z,3.1
2016-12-16T01:17:09.297Z,3.1
2016-12-16T01:17:19.290Z,3.1
2016-12-16T01:17:29.282Z,3
2016-12-16T01:17:39.276Z,3
2016-12-16T01:17:49.269Z,2.9
2016-12-16T01:17:59.265Z,3
2016-12-16T01:18:09.258Z,3
2016-12-16T01:18:19.251Z,3.1
2016-12-16T01:18:29.245Z,3
2016-12-16T01:18:39.237Z,3
2016-12-16T01:18:49.232Z,3.1
2016-12-16T01:18:59.225Z,3
2016-12-16T01:19:09.220Z,3
2016-12-16T01:19:19.212Z,3
2016-12-16T01:19:29.205Z,3
2016-12-16T01:19:39.200Z,3.1
2016-12-16T01:19:49.191Z,3
2016-12-16T01:19:59.186Z,3
2016-12-16T01:20:09.180Z,3
2016-12-16T01:20:19.174Z,2.9
2016-12-16T01:20:29.166Z,3
2016-12-16T01:20:39.160Z,3
2016-12-16T01:20:49.154Z,3
2016-12-16T01:20:59.146Z,3
2016-12-16T01:21:09.141Z,3
2016-12-16T01:21:19.132Z,3
2016-12-16T01:21:29.127Z,3
2016-12-16T01:21:39.122Z,3
2016-12-16T01:21:49.113Z,3
2016-12-16T01:21:59.108Z,3
2016-12-16T01:22:09.101Z,2.9
2016-12-16T01:22:19.095Z,3
2016-12-16T01:22:29.088Z,3
2016-12-16T01:22:39.080Z,2.9
2016-12-16T01:22:49.076Z,3
2016-12-16T01:22:59.069Z,3
2016-12-16T01:23:09.062Z,2.9
2016-12-16T01:23:19.055Z,3
2016-12-16T01:23:29.049Z,2.9
2016-12-16T01:23:39.043Z,3
2016-12-16T01:23:49.036Z,3
2016-12-16T01:23:59.030Z,2.9
2016-12-16T01:24:09.023Z,2.9
2016-12-16T01:24:19.017Z,3
2016-12-16T01:24:29.009Z,3
2016-12-16T01:24:39.002Z,3
2016-12-16T01:24:48.998Z,3
2016-12-16T01:24:58.990Z,3
2016-12-16T01:25:08.984Z,3
2016-12-16T01:25:18.978Z,2.9
2016-12-16T01:25:28.970Z,3
2016-12-16T01:25:38.965Z,3.1
2016-12-16T01:25:48.958Z,3.1
2016-12-16T01:25:58.952Z,3
2016-12-16T01:26:08.945Z,3
2016-12-16T01:26:18.937Z,3
2016-12-16T01:26:28.931Z,3
2016-12-16T01:26:38.924Z,3
2016-12-16T01:26:48.919Z,3
2016-12-16T01:26:58.913Z,3
2016-12-16T01:27:08.904Z,3
2016-12-16T01:27:18.899Z,2.9
2016-12-16T01:27:28.892Z,3
2016-12-16T01:27:38.886Z,3
2016-12-16T01:27:48.880Z,3
2016-12-16T01:27:58.873Z,3
2016-12-16T01:28:08.867Z,3
2016-12-16T01:28:18.859Z,3
2016-12-16T01:28:28.853Z,2.9
2016-12-16T01:28:38.847Z,3
2016-12-16T01:28:48.839Z,3.1
2016-12-16T01:28:58.834Z,3
2016-12-16T01:29:08.828Z,3.1
2016-12-16T01:29:18.820Z,3
2016-12-16T01:29:28.815Z,3
2016-12-16T01:29:38.809Z,3.1
2016-12-16T01:29:48.800Z,3.1
2016-12-16T01:29:58.795Z,3
2016-12-16T01:30:08.788Z,3
2016-12-16T01:30:18.781Z,3
2016-12-16T01:30:28.775Z,3
2016-12-16T01:30:38.767Z,3
2016-12-16T01:30:48.766Z,2.9
2016-12-16T01:30:58.754Z,3
2016-12-16T01:31:08.748Z,2.9
2016-12-16T01:31:18.743Z,3
2016-12-16T01:31:28.737Z,3
2016-12-16T01:31:38.730Z,2.9
2016-12-16T01:31:48.723Z,3
2016-12-16T01:31:58.715Z,2.9
2016-12-16T01:32:08.710Z,2.9
2016-12-16T01:32:18.702Z,2.9
2016-12-16T01:32:28.696Z,2.9
2016-12-16T01:32:38.689Z,2.9
2016-12-16T01:32:48.685Z,2.9
2016-12-16T01:32:58.677Z,2.9
2016-12-16T01:33:08.671Z,2.9
2016-12-16T01:33:18.664Z,2.9
2016-12-16T01:33:28.657Z,2.9
2016-12-16T01:33:38.652Z,2.9
2016-12-16T01:33:48.644Z,2.9
2016-12-16T01:33:58.638Z,2.9
2016-12-16T01:34:08.632Z,2.9
2016-12-16T01:34:18.626Z,2.9
2016-12-16T01:34:28.617Z,2.9
2016-12-16T01:34:38.611Z,2.9
2016-12-16T01:34:48.604Z,3
2016-12-16T01:34:58.599Z,2.8
2016-12-16T01:35:08.592Z,2.9
2016-12-16T01:35:18.585Z,2.9
2016-12-16T01:35:28.579Z,2.9
2016-12-16T01:35:38.573Z,2.8
2016-12-16T01:35:48.567Z,3
2016-12-16T01:35:58.560Z,3
2016-12-16T01:36:08.553Z,2.9
2016-12-16T01:36:18.547Z,2.9
2016-12-16T01:36:28.540Z,3
2016-12-16T01:36:38.533Z,2.9
2016-12-16T01:36:48.527Z,2.9
2016-12-16T01:36:58.519Z,2.9
2016-12-16T01:37:08.515Z,3
2016-12-16T01:37:18.507Z,3
2016-12-16T01:37:28.500Z,2.9
2016-12-16T01:37:38.495Z,3
2016-12-16T01:37:48.487Z,2.9
2016-12-16T01:37:58.481Z,3
2016-12-16T01:38:08.474Z,3
2016-12-16T01:38:18.468Z,3
2016-12-16T01:38:28.461Z,3
2016-12-16T01:38:38.455Z,3
2016-12-16T01:38:48.447Z,3
2016-12-16T01:38:58.443Z,2.9
2016-12-16T01:39:08.435Z,2.9
2016-12-16T01:39:18.428Z,2.9
2016-12-16T01:39:28.423Z,2.9
2016-12-16T01:39:38.416Z,3
2016-12-16T01:39:48.408Z,2.9
2016-12-16T01:39:58.402Z,3.1
2016-12-16T01:40:08.396Z,3
2016-12-16T01:40:18.390Z,3
2016-12-16T01:40:28.383Z,2.8
2016-12-16T01:40:38.376Z,2.9
2016-12-16T01:40:48.371Z,2.9
2016-12-16T01:40:58.362Z,2.9
2016-12-16T01:41:08.357Z,3
2016-12-16T01:41:18.349Z,3
2016-12-16T01:41:28.344Z,2.9
2016-12-16T01:41:38.338Z,3
2016-12-16T01:41:48.331Z,3
2016-12-16T01:41:58.323Z,3
2016-12-16T01:42:08.321Z,3
2016-12-16T01:42:18.311Z,3
2016-12-16T01:42:28.305Z,2.9
2016-12-16T01:42:38.297Z,3
2016-12-16T01:42:48.291Z,3
2016-12-16T01:42:58.287Z,3
2016-12-16T01:43:08.279Z,2.9
2016-12-16T01:43:18.272Z,3
2016-12-16T01:43:28.266Z,2.9
2016-12-16T01:43:38.259Z,3
2016-12-16T01:43:48.253Z,2.9
2016-12-16T01:43:58.246Z,2.9
2016-12-16T01:44:08.240Z,2.9
2016-12-16T01:44:18.232Z,3
2016-12-16T01:44:28.226Z,3
2016-12-16T01:44:38.222Z,2.9
2016-12-16T01:44:48.214Z,2.9
2016-12-16T01:44:58.207Z,3
2016-12-16T01:45:08.199Z,3
2016-12-16T01:45:18.192Z,3
2016-12-16T01:45:28.187Z,2.9
2016-12-16T01:45:38.180Z,3
2016-12-16T01:45:48.174Z,3
2016-12-16T01:45:58.166Z,2.9
2016-12-16T01:46:08.160Z,2.8
2016-12-16T01:46:18.154Z,2.9
2016-12-16T01:46:28.147Z,2.9
2016-12-16T01:46:38.140Z,2.9
2016-12-16T01:46:48.135Z,2.9
2016-12-16T01:46:58.129Z,2.9
2016-12-16T01:47:08.122Z,2.9
2016-12-16T01:47:18.114Z,2.9
2016-12-16T01:47:28.108Z,2.9
2016-12-16T01:47:38.100Z,2.9
2016-12-16T01:47:48.096Z,3
2016-12-16T01:47:58.089Z,2.9
2016-12-16T01:48:08.083Z,2.9
2016-12-16T01:48:18.077Z,2.9
2016-12-16T01:48:28.069Z,3
2016-12-16T01:48:38.062Z,2.9
2016-12-16T01:48:48.057Z,3
2016-12-16T01:48:58.048Z,3
2016-12-16T01:49:08.044Z,3
2016-12-16T01:49:18.035Z,3
2016-12-16T01:49:28.030Z,3
2016-12-16T01:49:38.024Z,3
2016-12-16T01:49:48.017Z,2.9
2016-12-16T01:49:58.011Z,3
2016-12-16T01:50:08.003Z,3
2016-12-16T01:50:18.001Z,3
2016-12-16T01:50:27.991Z,2.9
2016-12-16T01:50:37.984Z,3
2016-12-16T01:50:47.977Z,3
2016-12-16T01:50:57.972Z,2.9
2016-12-16T01:51:07.966Z,2.9
2016-12-16T01:51:17.959Z,3
2016-12-16T01:51:27.952Z,3
2016-12-16T01:51:37.945Z,2.9
2016-12-16T01:51:47.938Z,2.9
2016-12-16T01:51:57.932Z,2.9
2016-12-16T01:52:07.925Z,2.9
2016-12-16T01:52:17.920Z,2.8
2016-12-16T01:52:27.911Z,2.9
2016-12-16T01:52:37.909Z,2.9
2016-12-16T01:52:47.901Z,2.9
2016-12-16T01:52:57.893Z,2.9
2016-12-16T01:53:07.886Z,2.9
2016-12-16T01:53:17.879Z,3
2016-12-16T01:53:27.874Z,2.9
2016-12-16T01:53:37.866Z,2.9
2016-12-16T01:53:47.860Z,2.9
2016-12-16T01:53:57.854Z,2.9
2016-12-16T01:54:07.847Z,2.9
2016-12-16T01:54:17.839Z,2.8
2016-12-16T01:54:27.834Z,2.9
2016-12-16T01:54:37.826Z,2.9
2016-12-16T01:54:47.820Z,3
2016-12-16T01:54:57.816Z,2.9
2016-12-16T01:55:07.807Z,2.9
2016-12-16T01:55:17.800Z,2.8
2016-12-16T01:55:27.794Z,2.9
2016-12-16T01:55:37.788Z,2.9
2016-12-16T01:55:47.780Z,2.8
2016-12-16T01:55:57.774Z,2.9
2016-12-16T01:56:07.767Z,2.9
2016-12-16T01:56:17.762Z,2.9
2016-12-16T01:56:27.755Z,2.9
2016-12-16T01:56:37.749Z,2.8
2016-12-16T01:56:47.744Z,3
2016-12-16T01:56:57.736Z,3
2016-12-16T01:57:07.729Z,3
2016-12-16T01:57:17.722Z,2.9
2016-12-16T01:57:27.716Z,2.9
2016-12-16T01:57:37.708Z,2.9
2016-12-16T01:57:47.703Z,2.9
2016-12-16T01:57:57.697Z,2.8
2016-12-16T01:58:07.691Z,2.9
2016-12-16T01:58:17.684Z,2.9
2016-12-16T01:58:27.676Z,2.9
2016-12-16T01:58:37.670Z,2.9
2016-12-16T01:58:47.664Z,3
2016-12-16T01:58:57.658Z,2.9
2016-12-16T01:59:07.650Z,2.9
2016-12-16T01:59:17.643Z,2.9
2016-12-16T01:59:27.638Z,2.8
2016-12-16T01:59:37.629Z,2.9
2016-12-16T01:59:47.624Z,2.8
2016-12-16T01:59:57.618Z,2.9
2016-12-16T02:00:07.611Z,3
2016-12-16T02:00:17.605Z,2.9
2016-12-16T02:00:27.598Z,2.9
2016-12-16T02:00:37.592Z,2.9
2016-12-16T02:00:47.584Z,2.9
2016-12-16T02:00:57.577Z,2.9
2016-12-16T02:01:07.574Z,2.9
2016-12-16T02:01:17.564Z,2.8
2016-12-16T02:01:27.559Z,3
2016-12-16T02:01:37.553Z,2.9
2016-12-16T02:01:47.545Z,2.9
2016-12-16T02:01:57.538Z,2.9
2016-12-16T02:02:07.534Z,2.9
2016-12-16T02:02:17.526Z,2.9
2016-12-16T02:02:27.519Z,2.9
2016-12-16T02:02:37.513Z,3
2016-12-16T02:02:47.507Z,3
2016-12-16T02:02:57.500Z,2.9
2016-12-16T02:03:07.494Z,3
2016-12-16T02:03:17.487Z,2.8
2016-12-16T02:03:27.481Z,2.8
2016-12-16T02:03:37.474Z,3
2016-12-16T02:03:47.468Z,2.9
2016-12-16T02:03:57.460Z,3
2016-12-16T02:04:07.453Z,3
2016-12-16T02:04:17.447Z,2.9
2016-12-16T02:04:27.440Z,3
2016-12-16T02:04:37.436Z,3
2016-12-16T02:04:47.427Z,3
2016-12-16T02:04:57.422Z,2.9
2016-12-16T02:05:07.415Z,2.9
2016-12-16T02:05:17.408Z,2.9
2016-12-16T02:05:27.402Z,2.9
2016-12-16T02:05:37.396Z,2.9
2016-12-16T02:05:47.389Z,2.9
2016-12-16T02:05:57.381Z,2.9
2016-12-16T02:06:07.376Z,2.8
2016-12-16T02:06:17.368Z,2.9
2016-12-16T02:06:27.363Z,3
2016-12-16T02:06:37.358Z,2.9
2016-12-16T02:06:47.350Z,2.8
2016-12-16T02:06:57.344Z,2.9
2016-12-16T02:07:07.336Z,2.9
2016-12-16T02:07:17.330Z,2.9
2016-12-16T02:07:27.323Z,2.8
2016-12-16T02:07:37.317Z,2.9
2016-12-16T02:07:47.311Z,2.8
2016-12-16T02:07:57.304Z,2.9
2016-12-16T02:08:07.298Z,2.9
2016-12-16T02:08:17.292Z,2.9
2016-12-16T02:08:27.283Z,2.9
2016-12-16T02:08:37.277Z,2.9
2016-12-16T02:08:47.272Z,3
2016-12-16T02:08:57.265Z,2.9
2016-12-16T02:09:07.258Z,2.9
2016-12-16T02:09:17.250Z,2.9
2016-12-16T02:09:27.244Z,2.9
2016-12-16T02:09:37.238Z,2.9
2016-12-16T02:09:47.230Z,2.9
2016-12-16T02:09:57.226Z,2.9
2016-12-16T02:10:07.219Z,2.9
2016-12-16T02:10:17.212Z,2.9
2016-12-16T02:10:27.206Z,2.9
2016-12-16T02:10:37.198Z,2.9
2016-12-16T02:10:47.192Z,2.9
2016-12-16T02:10:57.185Z,3
2016-12-16T02:11:07.179Z,2.9
2016-12-16T02:11:17.173Z,2.8
2016-12-16T02:11:27.167Z,2.9
2016-12-16T02:11:37.161Z,3
2016-12-16T02:11:47.154Z,2.9
2016-12-16T02:11:57.146Z,3
2016-12-16T02:12:07.140Z,3
2016-12-16T02:12:17.134Z,2.9
2016-12-16T02:12:27.126Z,2.9
2016-12-16T02:12:37.120Z,2.9
2016-12-16T02:12:47.114Z,2.8
2016-12-16T02:12:57.106Z,2.9
2016-12-16T02:13:07.102Z,2.9
2016-12-16T02:13:17.093Z,2.8
2016-12-16T02:13:27.088Z,2.9
2016-12-16T02:13:37.082Z,2.9
2016-12-16T02:13:47.075Z,2.9
2016-12-16T02:13:57.069Z,2.9
2016-12-16T02:14:07.061Z,2.8
2016-12-16T02:14:17.055Z,2.9
2016-12-16T02:14:27.047Z,3
2016-12-16T02:14:37.042Z,2.9
2016-12-16T02:14:47.036Z,2.9
2016-12-16T02:14:57.028Z,2.9
2016-12-16T02:15:07.021Z,2.9
2016-12-16T02:15:17.015Z,2.8
2016-12-16T02:15:27.010Z,2.8
2016-12-16T02:15:37.003Z,2.9
2016-12-16T02:15:46.997Z,2.8
2016-12-16T02:15:56.993Z,2.9
2016-12-16T02:16:06.983Z,2.8
2016-12-16T02:16:16.976Z,3
2016-12-16T02:16:26.969Z,2.9
2016-12-16T02:16:36.964Z,2.8
2016-12-16T02:16:46.957Z,2.8
2016-12-16T02:16:56.951Z,2.9
2016-12-16T02:17:06.944Z,2.8
2016-12-16T02:17:16.936Z,2.8
2016-12-16T02:17:26.930Z,2.9
2016-12-16T02:17:36.924Z,2.9
2016-12-16T02:17:46.916Z,2.9
2016-12-16T02:17:56.910Z,2.9
2016-12-16T02:18:06.905Z,2.9
2016-12-16T02:18:16.898Z,2.9
2016-12-16T02:18:26.890Z,2.8
2016-12-16T02:18:36.886Z,2.9
2016-12-16T02:18:46.877Z,2.9
2016-12-16T02:18:56.872Z,2.9
2016-12-16T02:19:06.865Z,2.8
2016-12-16T02:19:16.859Z,2.9